createdAt,value
2017-08-31T00:02:03.866Z,91.00
2017-08-31T00:04:32.309Z,91.20
2017-08-31T00:06:59.991Z,91.20
2017-08-31T00:09:27.662Z,91.20
2017-08-31T00:11:55.374Z,91.20
2017-08-31T00:14:23.052Z,91.20
2017-08-31T00:16:50.698Z,91.30
2017-08-31T00:19:18.432Z,91.30
2017-08-31T00:21:46.083Z,91.40
2017-08-31T00:24:13.693Z,91.50
2017-08-31T00:26:41.399Z,91.50
2017-08-31T00:29:09.905Z,91.60
2017-08-31T00:31:37.585Z,91.60
2017-08-31T00:34:05.305Z,91.60
2017-08-31T00:36:32.928Z,91.60
2017-08-31T00:39:00.594Z,91.70
2017-08-31T00:41:28.425Z,92.00
2017-08-31T00:43:56.117Z,92.10
2017-08-31T00:46:23.798Z,92.10
2017-08-31T00:48:51.673Z,92.00
2017-08-31T00:51:19.324Z,92.10
2017-08-31T00:53:46.982Z,92.10
2017-08-31T00:56:14.694Z,92.10
2017-08-31T00:58:42.393Z,92.30
2017-08-31T01:01:10.083Z,92.30
2017-08-31T01:03:37.809Z,92.30
2017-08-31T01:06:05.462Z,92.40
2017-08-31T01:08:33.129Z,92.40
2017-08-31T01:11:01.014Z,92.50
2017-08-31T01:13:28.665Z,92.50
2017-08-31T01:15:56.328Z,92.50
2017-08-31T01:18:24.047Z,92.50
2017-08-31T01:20:52.510Z,92.30
2017-08-31T01:23:20.202Z,92.30
2017-08-31T01:25:47.918Z,92.40
2017-08-31T01:28:16.317Z,92.50
2017-08-31T01:30:44.750Z,92.50
2017-08-31T01:33:12.472Z,92.50
2017-08-31T01:35:40.151Z,92.70
2017-08-31T01:38:07.791Z,93.00
2017-08-31T01:40:35.511Z,92.70
2017-08-31T01:43:03.168Z,92.80
2017-08-31T01:45:31.610Z,92.80
2017-08-31T01:47:59.341Z,92.80
2017-08-31T01:50:27.001Z,92.80
2017-08-31T01:52:54.709Z,92.80
2017-08-31T01:55:22.525Z,92.80
2017-08-31T01:57:50.983Z,93.20
2017-08-31T02:00:19.469Z,92.90
2017-08-31T02:02:47.202Z,92.90
2017-08-31T02:05:14.864Z,93.00
2017-08-31T02:07:42.513Z,93.10
2017-08-31T02:10:10.301Z,93.10
2017-08-31T02:12:37.973Z,93.00
2017-08-31T02:15:06.416Z,93.00
2017-08-31T02:17:34.161Z,93.00
2017-08-31T02:20:01.828Z,93.00
2017-08-31T02:22:29.486Z,92.90
2017-08-31T02:24:58.102Z,92.80
2017-08-31T02:27:25.796Z,93.10
2017-08-31T02:29:54.240Z,92.70
2017-08-31T02:32:21.963Z,92.70
2017-08-31T02:34:49.632Z,92.70
2017-08-31T02:37:17.280Z,92.80
2017-08-31T02:39:45.136Z,92.80
2017-08-31T02:42:12.795Z,92.80
2017-08-31T02:44:40.456Z,93.20
2017-08-31T02:47:08.330Z,92.90
2017-08-31T02:49:35.977Z,92.80
2017-08-31T02:52:03.630Z,92.70
2017-08-31T02:54:31.362Z,92.80
2017-08-31T02:56:59.068Z,92.80
2017-08-31T02:59:26.720Z,92.80
2017-08-31T03:01:54.508Z,92.80
2017-08-31T03:04:22.166Z,92.80
2017-08-31T03:06:49.829Z,92.80
2017-08-31T03:09:17.563Z,92.90
2017-08-31T03:11:45.237Z,92.80
2017-08-31T03:14:12.906Z,92.80
2017-08-31T03:16:40.596Z,92.90
2017-08-31T03:19:08.252Z,92.80
2017-08-31T03:21:35.898Z,92.80
2017-08-31T03:24:03.607Z,92.80
2017-08-31T03:26:31.260Z,92.80
2017-08-31T03:28:58.950Z,92.70
2017-08-31T03:31:27.981Z,92.70
2017-08-31T03:33:55.895Z,92.70
2017-08-31T03:36:23.616Z,92.70
2017-08-31T03:38:53.581Z,92.70
2017-08-31T03:41:21.255Z,92.70
2017-08-31T03:43:48.894Z,92.60
2017-08-31T03:46:16.619Z,92.60
2017-08-31T03:48:44.271Z,92.70
2017-08-31T03:51:11.957Z,92.60
2017-08-31T03:53:39.772Z,92.70
2017-08-31T03:56:07.444Z,92.70
2017-08-31T03:58:35.147Z,92.60
2017-08-31T04:01:03.714Z,92.70
2017-08-31T04:03:31.352Z,92.60
2017-08-31T04:05:59.753Z,92.40
2017-08-31T04:08:27.474Z,92.40
2017-08-31T04:10:55.113Z,92.30
2017-08-31T04:13:22.764Z,92.30
2017-08-31T04:15:50.467Z,92.40
2017-08-31T04:18:18.177Z,92.20
2017-08-31T04:20:45.841Z,92.20
2017-08-31T04:23:14.151Z,92.20
2017-08-31T04:25:41.977Z,92.20
2017-08-31T04:28:09.718Z,92.10
2017-08-31T04:30:39.732Z,92.40
2017-08-31T04:33:07.370Z,92.00
2017-08-31T04:35:35.109Z,92.10
2017-08-31T04:38:02.806Z,92.00
2017-08-31T04:40:30.517Z,92.00
2017-08-31T04:42:58.153Z,92.00
2017-08-31T04:45:25.875Z,91.70
2017-08-31T04:47:53.525Z,91.70
2017-08-31T04:50:21.188Z,91.70
2017-08-31T04:52:49.046Z,91.50
2017-08-31T04:55:16.739Z,91.40
2017-08-31T04:57:44.535Z,91.30
2017-08-31T05:00:12.248Z,90.90
2017-08-31T05:02:39.854Z,90.80
2017-08-31T05:05:07.491Z,90.80
2017-08-31T05:07:35.427Z,90.60
2017-08-31T05:10:03.175Z,90.60
2017-08-31T05:12:31.020Z,90.20
2017-08-31T05:14:58.773Z,90.10
2017-08-31T05:17:26.433Z,90.00
2017-08-31T05:19:54.163Z,89.80
2017-08-31T05:22:22.130Z,89.20
2017-08-31T05:24:49.821Z,88.50
2017-08-31T05:27:17.479Z,88.60
2017-08-31T05:29:45.290Z,87.90
2017-08-31T05:32:13.699Z,87.60
2017-08-31T05:34:41.474Z,87.50
2017-08-31T05:37:09.205Z,87.50
2017-08-31T05:39:36.870Z,87.40
2017-08-31T05:42:04.554Z,87.00
2017-08-31T05:44:32.263Z,87.40
2017-08-31T05:47:00.010Z,87.20
2017-08-31T05:49:27.674Z,87.70
2017-08-31T05:51:55.385Z,87.30
2017-08-31T05:54:23.051Z,87.50
2017-08-31T05:56:50.797Z,87.60
2017-08-31T05:59:18.553Z,87.60
2017-08-31T06:01:46.193Z,88.20
2017-08-31T06:04:13.820Z,87.80
2017-08-31T06:06:41.561Z,87.90
2017-08-31T06:09:09.278Z,87.80
2017-08-31T06:11:36.955Z,88.00
2017-08-31T06:14:04.663Z,87.80
2017-08-31T06:16:32.482Z,87.80
2017-08-31T06:19:00.154Z,88.10
2017-08-31T06:21:27.946Z,88.10
2017-08-31T06:23:55.580Z,87.80
2017-08-31T06:26:23.257Z,88.00
2017-08-31T06:28:50.955Z,87.50
2017-08-31T06:31:18.615Z,87.60
2017-08-31T06:33:46.288Z,86.90
2017-08-31T06:36:14.103Z,87.00
2017-08-31T06:38:41.743Z,86.60
2017-08-31T06:41:09.461Z,86.60
2017-08-31T06:43:37.380Z,86.30
2017-08-31T06:46:05.036Z,86.60
2017-08-31T06:48:32.882Z,86.80
2017-08-31T06:51:00.851Z,86.80
2017-08-31T06:53:28.502Z,87.00
2017-08-31T06:55:56.165Z,87.40
2017-08-31T06:58:23.843Z,87.70
2017-08-31T07:00:51.516Z,87.70
2017-08-31T07:03:19.186Z,86.50
2017-08-31T07:05:46.899Z,86.80
2017-08-31T07:08:14.577Z,85.30
2017-08-31T07:10:42.238Z,84.90
2017-08-31T07:13:10.887Z,84.30
2017-08-31T07:15:38.658Z,84.30
2017-08-31T07:18:07.094Z,83.10
2017-08-31T07:20:34.931Z,83.10
2017-08-31T07:23:02.615Z,82.00
2017-08-31T07:25:31.078Z,81.10
2017-08-31T07:30:34.446Z,80.90
2017-08-31T07:33:02.104Z,80.60
2017-08-31T07:35:30.594Z,80.30
2017-08-31T07:37:58.330Z,80.30
2017-08-31T07:40:25.962Z,79.50
2017-08-31T07:42:54.400Z,79.50
2017-08-31T07:45:22.084Z,79.50
2017-08-31T07:47:49.799Z,80.30
2017-08-31T07:50:17.544Z,79.30
2017-08-31T07:52:45.278Z,78.90
2017-08-31T07:55:13.031Z,77.80
2017-08-31T07:57:40.683Z,77.70
2017-08-31T08:00:08.370Z,77.00
2017-08-31T08:02:36.069Z,77.00
2017-08-31T08:05:03.819Z,77.00
2017-08-31T08:07:31.807Z,76.90
2017-08-31T08:09:59.429Z,77.50
2017-08-31T08:12:27.068Z,77.90
2017-08-31T08:14:54.775Z,78.40
2017-08-31T08:17:22.443Z,78.60
2017-08-31T08:19:50.120Z,79.00
2017-08-31T08:22:17.826Z,78.00
2017-08-31T08:24:45.502Z,77.30
2017-08-31T08:27:13.139Z,76.80
2017-08-31T08:29:40.960Z,76.80
2017-08-31T08:32:08.626Z,76.30
2017-08-31T08:34:36.293Z,75.70
2017-08-31T08:37:04.002Z,76.20
2017-08-31T08:39:31.661Z,75.60
2017-08-31T08:41:59.306Z,75.10
2017-08-31T08:44:27.066Z,75.40
2017-08-31T08:46:54.823Z,75.50
2017-08-31T08:49:22.666Z,76.30
2017-08-31T08:51:50.467Z,76.70
2017-08-31T08:54:18.087Z,76.30
2017-08-31T08:56:45.737Z,74.80
2017-08-31T08:59:13.471Z,75.00
2017-08-31T09:01:41.915Z,74.50
2017-08-31T09:04:09.549Z,74.40
2017-08-31T09:06:37.267Z,74.90
2017-08-31T09:09:04.956Z,74.10
2017-08-31T09:11:32.633Z,74.50
2017-08-31T09:14:00.654Z,75.30
2017-08-31T09:16:28.406Z,75.70
2017-08-31T09:18:56.052Z,76.80
2017-08-31T09:21:23.906Z,77.30
2017-08-31T09:23:51.532Z,77.30
2017-08-31T09:26:19.202Z,77.00
2017-08-31T09:28:46.960Z,77.80
2017-08-31T09:31:14.802Z,77.30
2017-08-31T09:33:42.642Z,77.00
2017-08-31T09:36:10.438Z,75.50
2017-08-31T09:38:38.168Z,74.30
2017-08-31T09:41:05.893Z,74.10
2017-08-31T09:43:33.585Z,74.10
2017-08-31T09:46:01.255Z,75.10
2017-08-31T09:48:29.008Z,74.50
2017-08-31T09:50:56.889Z,74.40
2017-08-31T09:53:24.519Z,73.20
2017-08-31T09:55:52.281Z,72.10
2017-08-31T09:58:19.961Z,71.00
2017-08-31T10:00:47.578Z,69.70
2017-08-31T10:03:15.238Z,69.20
2017-08-31T10:05:43.842Z,68.70
2017-08-31T10:08:11.474Z,68.60
2017-08-31T10:10:39.149Z,69.20
2017-08-31T10:13:06.940Z,69.10
2017-08-31T10:15:34.602Z,68.70
2017-08-31T10:18:02.285Z,68.70
2017-08-31T10:20:30.092Z,68.60
2017-08-31T10:22:57.707Z,68.40
2017-08-31T10:25:25.345Z,67.80
2017-08-31T10:27:53.060Z,67.90
2017-08-31T10:30:20.694Z,67.10
2017-08-31T10:32:48.364Z,67.60
2017-08-31T10:35:16.088Z,67.50
2017-08-31T10:37:43.711Z,66.90
2017-08-31T10:40:12.142Z,67.30
2017-08-31T10:42:39.842Z,67.20
2017-08-31T10:45:07.522Z,67.40
2017-08-31T10:47:35.181Z,67.30
2017-08-31T10:50:02.898Z,67.80
2017-08-31T10:52:30.570Z,67.50
2017-08-31T10:54:58.239Z,67.30
2017-08-31T10:57:26.747Z,67.80
2017-08-31T10:59:54.380Z,67.80
2017-08-31T11:02:22.068Z,67.90
2017-08-31T11:04:49.759Z,67.20
2017-08-31T11:07:18.169Z,67.40
2017-08-31T11:09:45.839Z,67.40
2017-08-31T11:12:13.661Z,66.90
2017-08-31T11:14:41.306Z,67.20
2017-08-31T11:17:08.953Z,66.80
2017-08-31T11:19:36.696Z,66.80
2017-08-31T11:22:04.383Z,65.60
2017-08-31T11:24:32.039Z,64.30
2017-08-31T11:26:59.761Z,64.10
2017-08-31T11:29:27.459Z,64.70
2017-08-31T11:31:55.960Z,64.30
2017-08-31T11:34:24.610Z,64.60
2017-08-31T11:36:52.252Z,64.50
2017-08-31T11:39:19.845Z,64.10
2017-08-31T11:41:47.838Z,63.90
2017-08-31T11:44:15.463Z,64.70
2017-08-31T11:46:43.096Z,63.90
2017-08-31T11:49:10.787Z,63.90
2017-08-31T11:51:38.423Z,64.10
2017-08-31T11:54:06.084Z,65.70
2017-08-31T11:56:33.845Z,65.90
2017-08-31T11:59:01.493Z,65.70
2017-08-31T12:01:29.134Z,65.50
2017-08-31T12:03:56.843Z,64.50
2017-08-31T12:06:24.477Z,64.10
2017-08-31T12:08:52.907Z,63.20
2017-08-31T12:11:20.640Z,63.20
2017-08-31T12:13:48.282Z,62.70
2017-08-31T12:16:15.965Z,61.80
2017-08-31T12:18:43.701Z,60.30
2017-08-31T12:21:11.384Z,60.40
2017-08-31T12:23:39.039Z,60.70
2017-08-31T12:26:06.703Z,60.00
2017-08-31T12:28:34.468Z,60.70
2017-08-31T12:31:02.150Z,61.20
2017-08-31T12:33:30.637Z,60.80
2017-08-31T12:35:58.290Z,60.80
2017-08-31T12:38:25.915Z,61.70
2017-08-31T12:40:54.377Z,62.40
2017-08-31T12:43:22.013Z,62.30
2017-08-31T12:45:49.720Z,62.60
2017-08-31T12:48:17.598Z,62.40
2017-08-31T12:50:45.247Z,61.70
2017-08-31T12:53:12.914Z,61.20
2017-08-31T12:55:41.552Z,61.50
2017-08-31T12:58:09.217Z,61.40
2017-08-31T13:00:36.860Z,61.30
2017-08-31T13:03:04.684Z,60.80
2017-08-31T13:05:32.310Z,60.80
2017-08-31T13:07:59.934Z,60.90
2017-08-31T13:10:27.733Z,61.40
2017-08-31T13:12:55.374Z,60.40
2017-08-31T13:15:23.056Z,60.70
2017-08-31T13:17:51.522Z,59.70
2017-08-31T13:20:19.162Z,59.60
2017-08-31T13:22:46.817Z,59.00
2017-08-31T13:25:14.630Z,59.20
2017-08-31T13:27:42.285Z,59.50
2017-08-31T13:30:09.939Z,59.50
2017-08-31T13:32:38.426Z,60.60
2017-08-31T13:35:06.083Z,60.50
2017-08-31T13:37:33.750Z,61.50
2017-08-31T13:40:01.478Z,62.20
2017-08-31T13:42:29.111Z,63.10
2017-08-31T13:44:56.752Z,63.80
2017-08-31T13:47:24.489Z,64.50
2017-08-31T13:49:52.188Z,65.10
2017-08-31T13:52:19.802Z,66.60
2017-08-31T13:54:47.514Z,68.50
2017-08-31T13:57:15.245Z,69.10
2017-08-31T13:59:43.089Z,69.10
2017-08-31T14:02:10.840Z,68.70
2017-08-31T14:04:38.589Z,68.90
2017-08-31T14:07:06.925Z,69.00
2017-08-31T14:09:34.735Z,69.20
2017-08-31T14:12:02.803Z,69.30
2017-08-31T14:14:30.605Z,69.80
2017-08-31T14:16:58.557Z,71.20
2017-08-31T14:19:26.239Z,72.00
2017-08-31T14:21:53.899Z,72.50
2017-08-31T14:24:21.713Z,73.10
2017-08-31T14:26:49.413Z,73.00
2017-08-31T14:29:17.073Z,73.70
2017-08-31T14:31:44.821Z,73.00
2017-08-31T14:34:14.401Z,73.40
2017-08-31T14:36:42.486Z,73.40
2017-08-31T14:39:10.193Z,73.80
2017-08-31T14:41:37.845Z,75.40
2017-08-31T14:44:05.492Z,76.60
2017-08-31T14:46:33.231Z,76.10
2017-08-31T14:49:00.887Z,76.70
2017-08-31T14:51:29.001Z,76.30
2017-08-31T14:53:56.764Z,75.50
2017-08-31T14:56:24.469Z,74.60
2017-08-31T14:58:52.256Z,74.60
2017-08-31T15:01:20.307Z,73.50
2017-08-31T15:03:48.123Z,72.40
2017-08-31T15:06:15.794Z,72.30
2017-08-31T15:08:43.544Z,72.10
2017-08-31T15:11:11.237Z,72.40
2017-08-31T15:13:38.911Z,71.80
2017-08-31T15:16:06.627Z,70.70
2017-08-31T15:18:34.304Z,71.30
2017-08-31T15:21:01.940Z,71.00
2017-08-31T15:23:29.636Z,71.60
2017-08-31T15:25:57.293Z,72.50
2017-08-31T15:28:25.007Z,72.70
2017-08-31T15:30:53.606Z,73.30
2017-08-31T15:33:21.279Z,73.30
2017-08-31T15:35:48.968Z,73.50
2017-08-31T15:38:16.765Z,73.20
2017-08-31T15:40:44.418Z,73.80
2017-08-31T15:43:12.073Z,73.70
2017-08-31T15:45:40.041Z,74.60
2017-08-31T15:48:07.698Z,74.70
2017-08-31T15:50:36.177Z,72.70
2017-08-31T15:53:04.031Z,71.70
2017-08-31T15:55:31.709Z,70.60
2017-08-31T15:57:59.715Z,70.10
2017-08-31T16:00:27.462Z,69.50
2017-08-31T16:02:55.161Z,70.80
2017-08-31T16:05:22.803Z,71.60
2017-08-31T16:07:50.514Z,70.90
2017-08-31T16:10:18.184Z,70.40
2017-08-31T16:12:45.861Z,70.40
2017-08-31T16:15:13.559Z,70.20
2017-08-31T16:17:41.220Z,70.30
2017-08-31T16:20:08.863Z,71.50
2017-08-31T16:22:36.556Z,71.90
2017-08-31T16:25:04.243Z,73.00
2017-08-31T16:27:32.681Z,74.30
2017-08-31T16:30:00.375Z,74.30
2017-08-31T16:32:28.013Z,74.70
2017-08-31T16:34:55.689Z,74.60
2017-08-31T16:37:23.450Z,74.30
2017-08-31T16:39:51.926Z,74.40
2017-08-31T16:42:19.591Z,74.30
2017-08-31T16:44:47.354Z,74.30
2017-08-31T16:47:15.773Z,75.00
2017-08-31T16:49:43.458Z,74.90
2017-08-31T16:52:11.230Z,75.30
2017-08-31T16:54:38.851Z,75.80
2017-08-31T16:57:06.496Z,75.80
2017-08-31T16:59:34.258Z,76.30
2017-08-31T17:02:01.916Z,76.80
2017-08-31T17:04:29.721Z,76.60
2017-08-31T17:06:57.516Z,75.90
2017-08-31T17:09:25.198Z,75.70
2017-08-31T17:11:52.822Z,76.00
2017-08-31T17:14:20.486Z,76.40
2017-08-31T17:16:48.134Z,76.50
2017-08-31T17:19:15.800Z,75.90
2017-08-31T17:21:43.545Z,75.90
2017-08-31T17:24:11.197Z,75.80
2017-08-31T17:26:38.806Z,76.00
2017-08-31T17:29:06.514Z,74.70
2017-08-31T17:31:34.173Z,74.80
2017-08-31T17:34:01.836Z,74.30
2017-08-31T17:36:29.930Z,73.50
2017-08-31T17:38:57.776Z,73.50
2017-08-31T17:41:25.392Z,73.50
2017-08-31T17:43:53.049Z,72.90
2017-08-31T17:46:20.679Z,72.20
2017-08-31T17:48:48.464Z,72.80
2017-08-31T17:51:16.410Z,72.60
2017-08-31T17:53:44.169Z,73.00
2017-08-31T17:56:11.910Z,73.30
2017-08-31T17:58:39.714Z,72.60
2017-08-31T18:01:07.367Z,73.00
2017-08-31T18:03:34.989Z,73.20
2017-08-31T18:06:03.467Z,73.90
2017-08-31T18:08:31.116Z,73.90
2017-08-31T18:10:58.762Z,74.30
2017-08-31T18:13:26.582Z,74.60
2017-08-31T18:15:54.253Z,74.90
2017-08-31T18:18:22.049Z,75.20
2017-08-31T18:20:49.851Z,75.50
2017-08-31T18:23:17.563Z,75.80
2017-08-31T18:25:45.179Z,76.20
2017-08-31T18:28:12.909Z,76.90
2017-08-31T18:30:40.557Z,77.60
2017-08-31T18:33:08.273Z,77.90
2017-08-31T18:35:36.072Z,77.80
2017-08-31T18:38:03.716Z,78.10
2017-08-31T18:40:31.472Z,78.50
2017-08-31T18:43:00.157Z,78.70
2017-08-31T18:45:28.215Z,79.00
2017-08-31T18:47:55.966Z,78.70
2017-08-31T18:50:24.573Z,78.70
2017-08-31T18:52:52.299Z,78.70
2017-08-31T18:55:19.998Z,78.20
2017-08-31T18:57:47.900Z,78.20
2017-08-31T19:00:15.585Z,78.10
2017-08-31T19:02:43.314Z,77.70
2017-08-31T19:05:11.048Z,77.80
2017-08-31T19:07:38.714Z,77.50
2017-08-31T19:10:06.424Z,77.70
2017-08-31T19:12:34.170Z,77.90
2017-08-31T19:15:01.833Z,77.80
2017-08-31T19:17:29.483Z,77.70
2017-08-31T19:19:57.375Z,78.00
2017-08-31T19:22:25.046Z,78.00
2017-08-31T19:24:53.466Z,77.90
2017-08-31T19:27:21.445Z,77.80
2017-08-31T19:29:49.921Z,78.00
2017-08-31T19:32:17.582Z,78.10
2017-08-31T19:34:45.521Z,78.10
2017-08-31T19:37:13.337Z,78.40
2017-08-31T19:39:41.001Z,78.60
2017-08-31T19:42:08.835Z,78.90
2017-08-31T19:44:36.614Z,79.00
2017-08-31T19:47:04.267Z,79.50
2017-08-31T19:49:32.017Z,79.90
2017-08-31T19:51:59.794Z,80.20
2017-08-31T19:54:27.665Z,80.40
2017-08-31T19:56:55.796Z,80.60
2017-08-31T19:59:23.597Z,80.70
2017-08-31T20:01:51.452Z,81.10
2017-08-31T20:04:19.207Z,81.40
2017-08-31T20:06:46.889Z,82.10
2017-08-31T20:09:14.694Z,81.30
2017-08-31T20:11:42.406Z,81.40
2017-08-31T20:14:10.310Z,80.60
2017-08-31T20:16:38.144Z,82.30
2017-08-31T20:19:05.859Z,83.00
2017-08-31T20:21:33.525Z,83.30
2017-08-31T20:24:01.177Z,83.60
2017-08-31T20:26:28.894Z,84.00
2017-08-31T20:28:56.540Z,84.30
2017-08-31T20:31:24.227Z,84.40
2017-08-31T20:33:52.089Z,84.40
2017-08-31T20:36:19.825Z,84.30
2017-08-31T20:38:47.486Z,84.70
2017-08-31T20:41:15.198Z,84.60
2017-08-31T20:43:42.837Z,84.40
2017-08-31T20:46:10.484Z,84.40
2017-08-31T20:48:38.573Z,84.40
2017-08-31T20:51:06.240Z,84.30
2017-08-31T20:53:34.055Z,84.50
2017-08-31T20:56:01.891Z,84.60
2017-08-31T20:58:29.574Z,84.60
2017-08-31T21:00:57.348Z,84.60
2017-08-31T21:03:25.059Z,84.60
2017-08-31T21:05:52.727Z,84.80
2017-08-31T21:08:20.409Z,84.70
2017-08-31T21:10:48.193Z,85.10
2017-08-31T21:13:15.813Z,85.20
2017-08-31T21:15:43.480Z,85.30
2017-08-31T21:18:11.185Z,85.30
2017-08-31T21:20:38.852Z,85.20
2017-08-31T21:23:06.524Z,84.80
2017-08-31T21:25:34.183Z,84.70
2017-08-31T21:28:01.823Z,85.20
2017-08-31T21:30:29.470Z,84.80
2017-08-31T21:32:57.224Z,84.70
2017-08-31T21:35:24.991Z,84.80
2017-08-31T21:37:52.701Z,84.90
2017-08-31T21:40:20.579Z,85.00
2017-08-31T21:42:48.311Z,85.00
2017-08-31T21:45:15.962Z,85.10
2017-08-31T21:47:44.463Z,85.00
2017-08-31T21:50:12.138Z,85.00
2017-08-31T21:52:39.791Z,85.20
2017-08-31T21:55:07.477Z,85.30
2017-08-31T21:57:35.301Z,85.30
2017-08-31T22:00:02.967Z,85.40
2017-08-31T22:02:31.415Z,85.10
2017-08-31T22:04:59.071Z,85.20
2017-08-31T22:07:27.488Z,85.30
2017-08-31T22:09:55.155Z,85.30
2017-08-31T22:12:22.789Z,85.10
2017-08-31T22:14:50.557Z,85.40
2017-08-31T22:17:18.285Z,85.30
2017-08-31T22:19:45.927Z,85.30
2017-08-31T22:22:13.591Z,85.50
2017-08-31T22:24:41.303Z,85.80
2017-08-31T22:27:08.999Z,85.70
2017-08-31T22:29:36.746Z,85.70
2017-08-31T22:32:04.580Z,86.80
2017-08-31T22:34:32.373Z,85.90
2017-08-31T22:37:00.007Z,85.90
2017-08-31T22:39:28.541Z,85.80
2017-08-31T22:41:56.173Z,85.70
2017-08-31T22:44:23.866Z,85.80
2017-08-31T22:46:52.346Z,85.80
2017-08-31T22:49:20.143Z,85.80
2017-08-31T22:51:47.894Z,85.60
2017-08-31T22:54:21.689Z,85.70
2017-08-31T22:56:53.290Z,85.70
2017-08-31T22:59:21.012Z,85.50
2017-08-31T23:01:48.682Z,85.20
2017-08-31T23:04:16.316Z,85.30
2017-08-31T23:06:44.129Z,85.40
2017-08-31T23:09:12.557Z,86.30
2017-08-31T23:11:40.192Z,85.60
2017-08-31T23:14:07.912Z,85.60
2017-08-31T23:16:35.577Z,85.40
2017-08-31T23:19:03.228Z,85.60
2017-08-31T23:21:30.941Z,85.50
2017-08-31T23:23:58.596Z,85.60
2017-08-31T23:26:26.242Z,85.70
2017-08-31T23:28:53.917Z,85.40
2017-08-31T23:31:21.589Z,85.60
2017-08-31T23:33:49.274Z,85.40
2017-08-31T23:36:17.041Z,85.40
2017-08-31T23:38:44.658Z,85.60
2017-08-31T23:41:12.307Z,85.70
2017-08-31T23:43:40.012Z,85.80
2017-08-31T23:46:07.674Z,85.80
2017-08-31T23:48:35.331Z,85.80
2017-08-31T23:51:03.067Z,85.90
2017-08-31T23:53:30.682Z,86.10
2017-08-31T23:55:58.325Z,86.80
2017-08-31T23:58:26.045Z,86.20
